Tyrone, New York
Current Conditions -  °F | °C
As of 7:53 AM on Thursday 27 Nov 2014 (Local Time) from KPEO Reporting Station
Overcast Overcast  
Wind Chill: 20°   Ceiling: 4600
Heat Index: 28°   Visibility: 7mi
Dew Point: 23°   Wind: 8mph
Humidity: 81%   Direction: 270°W
Pressure: 30.02"   Gusts: NA
Location:  42.41°N, 77.06°W
Report Text: KPEO 271253Z AUTO 27007KT 7SM FEW009 OVC046 M02/M05 A3002 RMK AO2 SLP177 T10221050 $
Loading
Personal Weather Stations






























Interactive Weather Map New forecast layout! Learn more

10-Day Weather Forecast

Advertisements
Track Severe Weather on mobile